EZ SF34 at Bonaire on Oct 11th 2022, all main tyres deflate due to brakes heat

Last Update: October 12, 2022 / 19:33:54 GMT/Zulu time

Bookmark this article
Incident Facts

Date of incident
Oct 11, 2022

Classification
Incident

Airline
EZ Air

Flight number
7Z-671

Destination
Bonaire

Aircraft Registration
N304AG

Aircraft Type
SAAB 340

ICAO Type Designator
SF34

Airport ICAO Code
TNCB

An EZ Air Saab 340B, registration N304AG performing flight 7Z-671 from Curacao (Curacao) to Bonaire (Bonaire), landed on Bonaire's runway 10, the crew however needed to apply brakes harder than normal causing all 4 main tyres to deflate while the aircraft taxied to the apron.

The airport reported the tyre fuses released the tyre pressure as a safety mechanism.

Metars:
TNCB 111255Z 10016KT 070V130 9999 SCT018 30/25 Q1014=
COR TNCB 111155Z 09016KT 9999 FEW020 SCT024 30/25 Q1014=
COR TNCB 111055Z 09011KT 060V120 9999 SCT018 BKN026 28/25 Q1013=
TNCB 110955Z AUTO 09010KT 9999 NSC 27/25 Q1012=
TNCB 110855Z AUTO 08011KT 9999 NSC 28/25 Q1012=
TNCB 110755Z AUTO 08008KT 9999 FEW015/// 27/25 Q1012=
Aircraft Registration Data
Registration mark
N304AG
Country of Registration
United States
Date of Registration
hqpdmmh eh kbf Subscribe to unlock
Manufacturer
SAAB-SCANIA
Aircraft Model / Type
SAAB 340B
Number of Seats
ICAO Aircraft Type
SF34
Serial Number
Aircraft Address / Mode S Code (HEX)
Engine Count
Engine Manufacturer
Engine Model
Engine Type
Main Owner
Gdn qnbmqeg nefAhnhdjkjbqpkbme qlpinkkbffbqlAfhb phecflggbdbecnqmfhljckldAgfqmliknA Subscribe to unlock
Incident Facts

Date of incident
Oct 11, 2022

Classification
Incident

Airline
EZ Air

Flight number
7Z-671

Destination
Bonaire

Aircraft Registration
N304AG

Aircraft Type
SAAB 340

ICAO Type Designator
SF34

Airport ICAO Code
TNCB

This article is published under license from Avherald.com. © of text by Avherald.com.
Article source

You can read 2 more free articles without a subscription.

Subscribe now and continue reading without any limits!

Are you a subscriber? Login
Subscribe

Read unlimited articles and receive our daily update briefing. Gain better insights into what is happening in commercial aviation safety.

Send tip

Support AeroInside by sending a small tip amount.

Newest articles

Subscribe today

Are you researching aviation incidents? Get access to AeroInside Insights, unlimited read access and receive the daily newsletter.

Pick your plan and subscribe

Partner

Blockaviation logo

A new way to document and demonstrate airworthiness compliance and aircraft value. Find out more.

ELITE Logo

ELITE Simulation Solutions is a leading global provider of Flight Simulation Training Devices, IFR training software as well as flight controls and related services. Find out more.

Blue Altitude Logo

Your regulation partner, specialists in aviation safety and compliance; providing training, auditing, and consultancy services. Find out more.

AeroInside Blog
Popular aircraft
Airbus A320
Boeing 737-800
Boeing 737-800 MAX
Popular airlines
American Airlines
United
Delta
Air Canada
Lufthansa
British Airways